Time;durP1;ratioP1;P1;durP2;ratioP2;P2;SDS_P1;SDS_P2;PMS_P1;PMS_P2;Temp;Humidity;BMP_temperature;BMP_pressure;BME280_temperature;BME280_humidity;BME280_pressure;Samples;Min_cycle;Max_cycle;Signal;HPM_P1;HPM_P2
2022/11/12 00:05:14;;;;;;;46.37;20.83;;;;;;;7.54;100.00;102177.97;4983754;57;1141111;-67
2022/11/12 00:10:37;;;;;;;;;;;;;;;7.48;100.00;102183.03;4977266;57;1143225;-65
2022/11/12 00:16:00;;;;;;;31.83;16.43;;;;;;;7.51;100.00;102180.71;4962481;57;976181;-69
2022/11/12 00:21:23;;;;;;;25.72;11.85;;;;;;;7.48;100.00;102185.66;4912828;58;1141049;-66
2022/11/12 00:26:47;;;;;;;14.68;7.60;;;;;;;7.34;100.00;102186.16;4898711;58;1143300;-68
2022/11/12 00:32:11;;;;;;;15.72;7.33;;;;;;;7.25;100.00;102193.09;4899061;58;1138926;-68
2022/11/12 00:37:35;;;;;;;13.97;7.60;;;;;;;7.05;100.00;102195.58;4898580;58;1140890;-65
2022/11/12 00:42:59;;;;;;;16.93;6.70;;;;;;;6.95;100.00;102190.27;4895188;58;1141196;-67
2022/11/12 00:48:22;;;;;;;;;;;;;;;6.90;100.00;102186.92;4902358;58;1141004;-67
2022/11/12 00:53:48;;;;;;;13.43;7.17;;;;;;;6.83;100.00;102189.39;4844910;58;976140;-68
2022/11/12 00:59:12;;;;;;;16.17;8.40;;;;;;;6.76;100.00;102189.19;4825278;58;1138979;-69
2022/11/12 01:04:36;;;;;;;16.87;9.40;;;;;;;6.78;100.00;102185.59;4852179;58;1138993;-69
2022/11/12 01:09:59;;;;;;;19.50;8.97;;;;;;;6.79;100.00;102186.00;5024665;56;1138711;-69
2022/11/12 01:15:23;;;;;;;12.93;6.83;;;;;;;6.79;100.00;102190.40;5036496;57;1140646;-67
2022/11/12 01:20:46;;;;;;;13.83;7.00;;;;;;;6.71;100.00;102190.69;5001032;57;1140878;-68
2022/11/12 01:26:17;;;;;;;56.70;20.50;;;;;;;6.68;100.00;102190.78;4916561;57;1141190;-67
2022/11/12 01:31:41;;;;;;;74.63;21.33;;;;;;;6.71;100.00;102190.69;4817253;59;1143004;-66
2022/11/12 01:37:04;;;;;;;220.57;59.53;;;;;;;6.65;100.00;102183.86;4822570;59;1140988;-67
2022/11/12 01:42:33;;;;;;;29.53;11.20;;;;;;;6.65;100.00;102183.86;4928202;58;1145086;-71
2022/11/12 01:47:57;;;;;;;13.95;7.67;;;;;;;6.66;100.00;102184.27;4974419;57;1142958;-66
2022/11/12 01:53:24;;;;;;;19.10;7.87;;;;;;;6.67;100.00;102177.23;4944974;57;1141042;-66
2022/11/12 01:58:50;;;;;;;14.00;6.30;;;;;;;6.68;100.00;102175.02;4967033;57;1141023;-68
2022/11/12 02:04:14;;;;;;;12.23;7.57;;;;;;;6.73;100.00;102174.83;4944874;58;1141131;-69
2022/11/12 02:09:38;;;;;;;13.83;7.08;;;;;;;6.77;100.00;102180.39;4883917;58;1141051;-68
2022/11/12 02:15:01;;;;;;;12.33;7.20;;;;;;;6.80;100.00;102184.23;5034924;57;1141045;-67
2022/11/12 02:20:25;;;;;;;27.47;10.53;;;;;;;6.76;100.00;102190.05;4994642;57;1140908;-65
2022/11/12 02:25:49;;;;;;;148.25;44.85;;;;;;;6.80;100.00;102188.17;4959284;57;1142879;-66
2022/11/12 02:31:12;;;;;;;61.98;19.55;;;;;;;6.92;100.00;102193.86;5038114;57;1145037;-67
2022/11/12 02:36:35;;;;;;;92.33;26.63;;;;;;;7.05;100.00;102195.58;5041212;57;1143106;-65
2022/11/12 02:41:59;;;;;;;23.80;10.50;;;;;;;7.11;100.00;102195.83;5038712;57;1142979;-68
2022/11/12 02:47:22;;;;;;;18.13;10.30;;;;;;;7.15;100.00;102204.02;5042387;57;1143037;-68
2022/11/12 02:52:46;;;;;;;21.77;11.28;;;;;;;7.22;100.00;102212.93;5042724;56;1142942;-67
2022/11/12 02:58:10;;;;;;;14.33;9.57;;;;;;;7.27;100.00;102216.27;5019043;56;1143135;-67
2022/11/12 03:03:32;;;;;;;;;;;;;;;7.31;100.00;102209.98;5042709;57;1141023;-68
2022/11/12 03:08:55;;;;;;;19.67;9.70;;;;;;;7.39;100.00;102209.69;5114120;56;1072350;-67
2022/11/12 03:14:18;;;;;;;;;;;;;;;7.45;100.00;102212.55;5131524;56;1141023;-66
2022/11/12 03:19:41;;;;;;;18.43;8.17;;;;;;;7.49;100.00;102218.94;5143992;56;976252;-67
2022/11/12 03:25:06;;;;;;;16.73;9.10;;;;;;;7.56;100.00;102220.44;5127956;56;1138958;-66
2022/11/12 03:30:32;;;;;;;13.10;8.60;;;;;;;7.61;100.00;102229.03;5089416;56;1140913;-65
2022/11/12 03:35:56;;;;;;;16.20;10.80;;;;;;;7.65;100.00;102225.80;5126310;56;1140936;-66
2022/11/12 03:41:19;;;;;;;24.02;11.75;;;;;;;7.70;100.00;102229.13;5067173;56;1143019;-67
2022/11/12 03:46:41;;;;;;;;;;;;;;;7.71;100.00;102228.21;5037836;57;1142978;-67
2022/11/12 03:52:05;;;;;;;18.57;11.57;;;;;;;7.74;100.00;102237.31;5066829;56;976303;-68
2022/11/12 03:57:28;;;;;;;23.83;12.78;;;;;;;7.78;100.00;102228.84;5008916;57;1141615;-66
2022/11/12 04:02:52;;;;;;;25.85;13.22;;;;;;;7.82;100.00;102238.33;5035826;57;1143109;-67
2022/11/12 04:08:37;;;;;;;21.10;11.27;;;;;;;7.80;100.00;102233.11;4958395;58;1143122;-67
2022/11/12 04:14:01;;;;;;;23.40;12.97;;;;;;;7.83;100.00;102236.95;4954918;58;1142999;-65
2022/11/12 04:30:47;;;;;;;26.40;13.68;;;;;;;7.82;100.00;102240.50;4933957;57;1143432;-69
2022/11/12 04:36:11;;;;;;;26.50;13.83;;;;;;;7.87;100.00;102240.33;5001815;57;1143492;-66
2022/11/12 04:47:16;;;;;;;22.80;13.70;;;;;;;7.94;100.00;102238.73;5041005;56;1143139;-68
2022/11/12 04:52:39;;;;;;;;;;;;;;;7.97;100.00;102243.86;5008677;56;1143032;-65
2022/11/12 04:58:02;;;;;;;23.50;13.60;;;;;;;7.99;100.00;102237.21;5056900;56;1082737;-67
2022/11/12 05:03:25;;;;;;;30.12;16.65;;;;;;;8.01;100.00;102234.06;5025247;56;1143085;-68
2022/11/12 05:08:52;;;;;;;29.50;16.57;;;;;;;8.06;100.00;102235.61;4951899;57;1143010;-66
2022/11/12 05:14:16;;;;;;;22.85;15.43;;;;;;;8.07;100.00;102234.69;5008139;57;1143166;-66
2022/11/12 05:19:40;;;;;;;30.57;16.70;;;;;;;8.08;100.00;102233.77;4920666;57;1143046;-65
2022/11/12 05:25:05;;;;;;;25.77;15.20;;;;;;;8.10;100.00;102237.17;5005188;56;1143102;-65
2022/11/12 05:30:28;;;;;;;17.15;12.35;;;;;;;8.14;100.00;102239.23;5039744;56;1143080;-68
2022/11/12 05:35:51;;;;;;;22.37;11.80;;;;;;;8.16;100.00;102247.95;5014013;57;1142898;-67
2022/11/12 05:41:15;;;;;;;16.40;11.57;;;;;;;8.13;100.00;102246.28;5038431;57;1143139;-66
2022/11/12 05:46:38;;;;;;;15.60;10.25;;;;;;;8.09;100.00;102242.08;5021028;57;1143052;-68
2022/11/12 05:52:01;;;;;;;15.18;10.68;;;;;;;8.07;100.00;102253.14;5019815;57;1143028;-68
2022/11/12 05:57:27;;;;;;;18.95;12.73;;;;;;;8.07;100.00;102248.33;5013036;57;1143076;-65
2022/11/12 06:02:50;;;;;;;14.60;10.43;;;;;;;8.03;100.00;102246.27;5031667;56;1143042;-68
2022/11/12 06:08:14;;;;;;;22.62;12.00;;;;;;;8.02;100.00;102255.54;5047533;56;1143184;-70
2022/11/12 06:13:37;;;;;;;16.77;11.93;;;;;;;8.01;100.00;102257.31;4960768;57;1143148;-65
2022/11/12 06:19:01;;;;;;;14.58;10.80;;;;;;;8.03;100.00;102259.44;4975037;57;1143180;-67
2022/11/12 06:24:25;;;;;;;16.07;11.40;;;;;;;8.08;100.00;102261.91;4970049;57;1143204;-65
2022/11/12 06:29:49;;;;;;;22.15;13.72;;;;;;;8.11;100.00;102268.34;5057760;56;1143009;-65
2022/11/12 06:35:11;;;;;;;;;;;;;;;8.10;100.00;102263.98;5045982;57;1143218;-70
2022/11/12 06:40:35;;;;;;;19.93;13.17;;;;;;;8.09;100.00;102267.11;5056877;56;976096;-66
2022/11/12 06:46:01;;;;;;;24.07;14.07;;;;;;;8.14;100.00;102277.45;5036869;56;1141575;-70
2022/11/12 06:51:25;;;;;;;21.05;13.20;;;;;;;8.16;100.00;102282.20;5038829;56;1143096;-65
2022/11/12 06:56:48;;;;;;;19.60;13.00;;;;;;;8.18;100.00;102288.73;4979535;57;1143130;-64
2022/11/12 07:02:12;;;;;;;19.07;12.90;;;;;;;8.19;100.00;102284.73;5052621;56;1143139;-70
2022/11/12 07:07:36;;;;;;;13.03;10.43;;;;;;;8.23;100.00;102289.42;5044717;56;1143153;-67
2022/11/12 07:12:59;;;;;;;17.90;11.10;;;;;;;8.31;100.00;102292.14;4958318;58;1143114;-65
2022/11/12 07:18:23;;;;;;;21.13;12.60;;;;;;;8.30;100.00;102283.83;4974096;57;1143939;-66
2022/11/12 07:23:48;;;;;;;20.60;12.07;;;;;;;8.28;100.00;102284.34;4948455;58;1143081;-75
2022/11/12 07:29:11;;;;;;;18.47;11.90;;;;;;;8.28;100.00;102286.98;4963747;58;1143214;-77
2022/11/12 07:34:34;;;;;;;30.03;12.27;;;;;;;8.28;100.00;102279.08;5030943;56;1142822;-77
2022/11/12 07:39:58;;;;;;;16.90;10.88;;;;;;;8.25;100.00;102273.92;5043248;56;1142966;-77
2022/11/12 07:45:22;;;;;;;18.97;11.87;;;;;;;8.32;100.00;102293.89;5042824;56;1143206;-77
2022/11/12 07:50:45;;;;;;;20.87;11.63;;;;;;;8.34;100.00;102301.75;5039802;57;1142987;-77
2022/11/12 07:56:14;;;;;;;17.10;11.30;;;;;;;8.38;100.00;102306.84;5010141;56;1143087;-76
2022/11/12 08:01:41;;;;;;;19.20;11.43;;;;;;;8.44;100.00;102309.22;5017268;56;1142914;-77
2022/11/12 08:07:05;;;;;;;21.40;12.33;;;;;;;8.51;100.00;102301.93;5090968;56;1142964;-79
2022/11/12 08:12:29;;;;;;;;;;;;;;;8.58;100.00;102311.30;5024008;56;1143045;-77
2022/11/12 08:17:52;;;;;;;20.75;14.30;;;;;;;8.67;100.00;102320.17;5052458;56;976378;-76
2022/11/12 08:23:15;;;;;;;25.93;14.50;;;;;;;8.74;100.00;102316.80;5047416;56;1141116;-78
2022/11/12 08:28:40;;;;;;;21.20;14.07;;;;;;;8.82;100.00;102306.80;5008054;57;1142986;-78
2022/11/12 08:34:10;;;;;;;21.02;13.95;;;;;;;8.87;100.00;102306.59;5042859;56;1143264;-78
2022/11/12 08:39:28;;;;;;;25.03;12.13;;;;;;;8.89;100.00;102321.90;5035748;56;1143129;-76
2022/11/12 08:44:52;;;;;;;22.10;13.30;;;;;;;8.91;100.00;102321.37;4987048;57;1143229;-79
2022/11/12 08:50:15;;;;;;;23.73;13.72;;;;;;;8.92;100.00;102314.72;4976048;57;1143143;-76
2022/11/12 08:55:39;;;;;;;24.63;15.00;;;;;;;8.99;100.00;102321.47;5032043;57;1143060;-78
2022/11/12 09:01:06;;;;;;;27.43;14.70;;;;;;;9.10;100.00;102328.92;4994276;57;1143033;-79
2022/11/12 09:06:29;;;;;;;17.77;12.93;;;;;;;9.17;100.00;102331.22;5038200;57;1142969;-77
2022/11/12 09:11:53;;;;;;;20.80;15.70;;;;;;;9.24;100.00;102327.87;5042457;56;1160727;-77
2022/11/12 09:17:17;;;;;;;22.70;13.93;;;;;;;9.32;100.00;102328.37;5037905;57;1142994;-78
2022/11/12 09:22:41;;;;;;;18.95;12.93;;;;;;;9.38;100.00;102337.37;5036083;56;1142851;-80
2022/11/12 09:28:09;;;;;;;23.67;15.05;;;;;;;9.44;100.00;102348.14;5038307;56;1142974;-78
2022/11/12 09:33:34;;;;;;;36.17;15.63;;;;;;;9.48;100.00;102333.84;5042690;56;1143190;-78
2022/11/12 09:38:57;;;;;;;24.90;14.78;;;;;;;9.55;100.00;102338.41;5049846;56;1143254;-80
2022/11/12 09:44:23;;;;;;;23.20;15.00;;;;;;;9.61;100.00;102336.38;4982074;57;1143067;-80
2022/11/12 09:49:56;;;;;;;21.40;13.50;;;;;;;9.65;100.00;102345.84;4974100;57;1142978;-78
2022/11/12 09:55:36;;;;;;;23.77;16.70;;;;;;;9.67;100.00;102354.57;5023034;57;1143174;-79
2022/11/12 10:01:23;;;;;;;26.35;14.85;;;;;;;9.73;100.00;102356.09;5043125;57;1143023;-79
2022/11/12 10:07:03;;;;;;;20.43;13.43;;;;;;;9.79;100.00;102359.77;5056043;57;1143073;-77
2022/11/12 10:12:37;;;;;;;17.33;12.03;;;;;;;9.79;100.00;102362.41;4982227;57;1142834;-81
2022/11/12 10:18:08;;;;;;;25.17;14.43;;;;;;;9.78;100.00;102356.26;4987336;56;1143090;-78
2022/11/12 10:23:45;;;;;;;25.63;14.53;;;;;;;9.80;100.00;102350.45;5056252;56;1143106;-79
2022/11/12 10:29:34;;;;;;;26.73;14.70;;;;;;;9.83;100.00;102356.06;5056461;56;1143111;-80
2022/11/12 10:34:57;;;;;;;20.17;12.95;;;;;;;9.82;100.00;102338.48;5056335;56;1143122;-78
2022/11/12 10:40:39;;;;;;;17.73;12.28;;;;;;;9.84;100.00;102350.71;5056338;56;1143114;-78
2022/11/12 10:46:22;;;;;;;16.73;10.97;;;;;;;9.85;100.00;102347.61;5056795;56;1143161;-80
2022/11/12 10:51:55;;;;;;;18.32;13.03;;;;;;;9.87;100.00;102340.01;5054374;57;1143317;-81
2022/11/12 10:57:26;;;;;;;19.23;10.55;;;;;;;9.90;100.00;102337.70;4946735;57;1142973;-79
2022/11/12 11:02:54;;;;;;;22.90;12.90;;;;;;;9.94;100.00;102331.31;4980651;57;1143158;-77
2022/11/12 11:08:40;;;;;;;21.83;12.97;;;;;;;9.98;100.00;102338.19;4917657;57;1143117;-78
2022/11/12 11:14:27;;;;;;;22.37;11.83;;;;;;;10.04;100.00;102328.66;4977788;57;1143132;-80
2022/11/12 11:19:50;;;;;;;21.37;11.30;;;;;;;10.08;100.00;102332.85;4937019;58;1145124;-78
2022/11/12 11:25:20;;;;;;;21.00;10.37;;;;;;;10.08;100.00;102328.06;4953662;57;1145462;-77
2022/11/12 11:30:59;;;;;;;26.43;13.03;;;;;;;10.13;100.00;102329.54;4973740;56;1145066;-78
2022/11/12 11:36:33;;;;;;;24.50;14.83;;;;;;;10.20;100.00;102330.16;4971018;57;1145024;-80
2022/11/12 11:42:15;;;;;;;49.70;23.60;;;;;;;10.29;100.00;102332.81;4958059;57;1144997;-81
2022/11/12 11:48:09;;;;;;;33.33;19.20;;;;;;;10.28;100.00;102325.81;4952992;56;1144950;-77
2022/11/12 11:54:07;;;;;;;23.90;15.03;;;;;;;10.32;100.00;102338.83;4885335;57;1145130;-77
2022/11/12 11:59:56;;;;;;;28.67;17.67;;;;;;;10.37;100.00;102338.62;4815987;58;1145160;-79
2022/11/12 12:05:44;;;;;;;26.83;15.03;;;;;;;10.41;100.00;102334.41;4821976;58;1145302;-80
2022/11/12 12:11:27;;;;;;;21.63;13.03;;;;;;;10.42;100.00;102336.59;4951813;58;1145202;-80
2022/11/12 12:17:18;;;;;;;22.13;12.57;;;;;;;10.43;100.00;102342.27;4951412;58;1145292;-79
2022/11/12 12:22:49;;;;;;;32.70;19.93;;;;;;;10.47;100.00;102338.09;4894604;57;1144963;-78
2022/11/12 12:28:29;;;;;;;31.47;14.07;;;;;;;10.49;100.00;102348.14;4895052;57;1145204;-78
2022/11/12 12:34:01;;;;;;;22.23;11.67;;;;;;;10.50;100.00;102348.53;4936905;57;1145151;-77
2022/11/12 12:39:44;;;;;;;23.83;12.47;;;;;;;10.52;100.00;102341.84;5029303;57;1145163;-78
2022/11/12 12:45:40;;;;;;;26.30;14.70;;;;;;;10.54;100.00;102339.49;5057931;56;1145045;-79
2022/11/12 12:51:03;;;;;;;23.45;11.57;;;;;;;10.57;100.00;102343.78;5051117;57;1145098;-79
2022/11/12 12:56:34;;;;;;;17.63;11.37;;;;;;;10.55;100.00;102335.06;5030114;56;1145209;-73
2022/11/12 13:02:04;;;;;;;16.65;11.43;;;;;;;10.54;100.00;102332.05;5057519;56;1145092;-75
2022/11/12 13:07:45;;;;;;;16.10;10.40;;;;;;;10.49;100.00;102320.36;5055748;56;1145065;-78
2022/11/12 13:13:24;;;;;;;20.53;10.23;;;;;;;10.57;100.00;102335.37;4973704;58;1145056;-79
2022/11/12 13:18:56;;;;;;;20.07;10.60;;;;;;;10.62;100.00;102332.52;4969542;57;1145477;-75
2022/11/12 13:24:24;;;;;;;18.90;8.00;;;;;;;10.63;100.00;102337.34;4915436;58;1145172;-76
2022/11/12 13:29:48;;;;;;;14.87;9.77;;;;;;;10.61;100.00;102332.13;5025030;57;1143061;-77
2022/11/12 13:35:27;;;;;;;18.73;9.53;;;;;;;10.61;100.00;102328.16;5036557;57;1143277;-80
2022/11/12 13:41:13;;;;;;;19.07;9.30;;;;;;;10.65;100.00;102332.38;5036447;57;1143032;-76
2022/11/12 13:46:36;;;;;;;20.57;10.07;;;;;;;10.68;100.00;102328.27;5029526;57;1143493;-79
2022/11/12 13:51:59;;;;;;;;;;;;;;;10.71;100.00;102329.88;4954338;58;1145104;-77
2022/11/12 13:57:27;;;;;;;18.00;10.73;;;;;;;10.71;100.00;102321.94;4994133;56;978448;-80
2022/11/12 14:03:04;;;;;;;14.93;10.23;;;;;;;10.75;100.00;102324.37;4962353;57;1151511;-77
2022/11/12 14:08:41;;;;;;;19.07;12.50;;;;;;;10.75;100.00;102321.72;5055063;56;1144994;-77
2022/11/12 14:14:18;;;;;;;22.62;10.70;;;;;;;10.74;100.00;102316.03;5032583;57;1145450;-77
2022/11/12 14:20:16;;;;;;;26.90;15.40;;;;;;;10.77;100.00;102321.18;4959591;57;1254909;-79
2022/11/12 14:25:52;;;;;;;111.30;65.63;;;;;;;10.79;100.00;102318.00;4972318;57;1144964;-77
2022/11/12 14:31:19;;;;;;;18.97;12.03;;;;;;;10.81;100.00;102325.40;4961858;57;1147323;-79
2022/11/12 14:36:42;;;;;;;19.83;11.43;;;;;;;10.82;100.00;102320.96;4962098;57;1145075;-78
2022/11/12 14:42:13;;;;;;;19.90;9.90;;;;;;;10.83;100.00;102326.65;4961884;57;1145218;-79
2022/11/12 14:47:36;;;;;;;19.47;11.53;;;;;;;10.85;100.00;102332.70;4962700;56;1142806;-79
2022/11/12 14:53:13;;;;;;;17.48;10.58;;;;;;;10.84;100.00;102331.01;4973234;56;1144943;-77
2022/11/12 14:58:37;;;;;;;23.85;11.57;;;;;;;10.81;100.00;102324.08;5043541;56;1145075;-80
2022/11/12 15:04:18;;;;;;;19.48;10.78;;;;;;;10.83;100.00;102331.94;5003336;56;1145282;-80
2022/11/12 15:09:41;;;;;;;26.47;11.87;;;;;;;10.83;100.00;102322.21;5033811;56;1145260;-79
2022/11/12 15:15:12;;;;;;;18.92;10.35;;;;;;;10.86;100.00;102309.27;5033586;56;1145216;-77
2022/11/12 15:20:36;;;;;;;24.80;12.03;;;;;;;10.89;100.00;102317.05;4976190;56;1145327;-79
2022/11/12 15:26:01;;;;;;;19.95;10.30;;;;;;;10.89;100.00;102306.00;4951641;58;1145068;-80
2022/11/12 15:31:24;;;;;;;15.93;9.60;;;;;;;10.88;100.00;102317.98;4951485;58;1145281;-78
2022/11/12 15:36:48;;;;;;;21.65;11.15;;;;;;;10.88;100.00;102322.81;4951598;58;1143071;-80
2022/11/12 15:42:38;;;;;;;25.12;12.13;;;;;;;10.86;100.00;102325.14;4951761;58;1145143;-78
2022/11/12 15:48:01;;;;;;;27.05;12.45;;;;;;;10.84;100.00;102323.92;4970629;57;1144959;-78
2022/11/12 15:53:25;;;;;;;23.73;12.15;;;;;;;10.82;100.00;102322.28;5054664;57;1144944;-77
2022/11/12 15:58:48;;;;;;;23.65;12.23;;;;;;;10.77;100.00;102322.50;5055855;56;1145052;-76
2022/11/12 16:04:13;;;;;;;21.35;12.07;;;;;;;10.78;100.00;102321.57;5057107;57;1145109;-78
2022/11/12 16:09:37;;;;;;;27.03;13.90;;;;;;;10.85;100.00;102323.43;5137669;56;1145148;-76
2022/11/12 16:15:02;;;;;;;30.23;16.77;;;;;;;10.88;100.00;102334.73;5141661;56;1145057;-76
2022/11/12 16:20:30;;;;;;;29.37;14.93;;;;;;;10.91;100.00;102337.70;5085902;56;1145235;-76
2022/11/12 16:25:53;;;;;;;28.43;15.20;;;;;;;10.89;100.00;102343.53;5057504;55;1145231;-78
2022/11/12 16:31:16;;;;;;;31.80;16.13;;;;;;;10.89;100.00;102348.82;5057308;56;1145024;-77
2022/11/12 16:36:40;;;;;;;36.23;18.42;;;;;;;10.97;100.00;102348.45;5057624;56;1145169;-80
